Belmont, NC

6:51 PM EDT on September 17, 2014 (GMT -0400)
South Belmont | Change Station
CLOSE
Current Station
Personal Weather Station
Location: Belmont, NC
Elevation: 709 ft
Nearby Weather Stations

Elev 709 ft 35.23 °N, 81.04 °W | Updated 4 minutes ago

Partly Cloudy
Partly Cloudy
71.6 °F
Feels Like 71 °F
N
0.0
Wind Variable Wind from NE

Today
High -- | Low -- °F
--% Chance of Precip.
Yesterday
High -- | Low -- °F
Precip. -- in
7:08 AM 7:28 PM
Waning Crescent, 32% visible
Pressure 29.92 in
Visibility 10.0 miles
Clouds Few 1500 ft
Scattered Clouds 3500 ft
Mostly Cloudy 7000 ft
Mostly Cloudy 25000 ft
Heat Index 71 °F
Dew Point 66 °F
Humidity 84%
Rainfall 0.00 in
Snow Depth Not available.
UV 1 out of 12
Pollen 7.70 out of 12
Ozone Good
PM2.5 Moderate
Flu Activity Not available.
METAR KCLT 172152Z 35003KT 10SM FEW015 SCT035 BKN070 BKN250 23/18 A2994 RMK AO2 SLP132 T02280178

More Conditions Fewer Conditions

Pressure 29.92 in
Visibility 10.0 miles
Clouds Few 1500 ft
Scattered Clouds 3500 ft
Mostly Cloudy 7000 ft
Mostly Cloudy 25000 ft
Heat Index 71 °F
Dew Point 66 °F
Humidity 84%
Rainfall 0.00 in
Snow Depth Not available.
UV 1 out of 12
Pollen 7.70 out of 12
Ozone Good
PM2.5 Moderate
Flu Activity Not available.
METAR KCLT 172152Z 35003KT 10SM FEW015 SCT035 BKN070 BKN250 23/18 A2994 RMK AO2 SLP132 T02280178

More Conditions Fewer Conditions

10-Day Weather Forecast

Almanac

Astronomy

Sep. 17, 2014 Rise Set
Actual Time 7:08 AM EDT 7:28 PM EDT
Civil Twilight 6:43 AM EDT 7:53 PM EDT
Nautical Twilight 6:13 AM EDT 8:23 PM EDT
Astronomical Twilight 5:42 AM EDT 8:53 PM EDT
Moon 1:16 AM EDT 3:28 PM EDT
Length of Visible Light 13h 10m
Length of Day
12h 19m
Tomorrow will be 2m 11s shorter.
Waning Crescent, 32% of the Moon is Illuminated
Today
Waning Crescent
Sep 24
New
Oct 1
First Quarter
Oct 8
Full
Oct 15
Last Quarter

Today's Extremes

State Highs State Lows

Community

WunderPhotos

Upload Photos

1,754,185 photos uploaded!

Nearby

Air Quality

  Air Quality AQ Index Pollutant
Yesterday Good
OZONE
Yesterday Good
PM2.5
Current Moderate
PM2.5
Current Good
OZONE
Wednesday Good
PM2.5
Wednesday Good
OZONE
Thursday Good
PM2.5
Thursday Good
OZONE
Friday Good
OZONE
Friday Good
PM2.5
Saturday Good
OZONE
Saturday Good
PM2.5

Snow Depth

Station Depth Elevation
No new snow has been reported.

Earthquake Activity

City Distance Mag. Time & Date
No recent earthquake activity has been reported nearby.
Minimum magnitude displayed is 2.5.

Coastal Water Temperatures

Place Temperature
No Stations Reporting

Nearby Weather Stations